< Cyclone 202005 2020 Season Cyclone 202007 >
Cyclone 202006 (Uesi)
General InformationTrack Information on Google MapsDetailed Wind Information || ResourceGoogle EarthGE AnimationAtom FeedGeoJSON
Detalied Best Track (Time Zone = UTC)
Year Month Day Hour Lat. Long. Pressure (hPa) Wind (kt) Class Image Chart
2020 2 6 06 -13.0 163.1 1000 0 0 Image --
2020 2 6 12 -13.9 162.0 1000 15 2 Image --
2020 2 6 18 -13.4 162.7 1000 15 2 Image --
2020 2 7 00 -13.6 161.2 1000 15 2 Image --
2020 2 7 12 -13.6 163.9 1000 20 2 Image --
2020 2 7 18 -13.6 163.7 1000 20 2 Image --
2020 2 8 00 -13.5 163.6 1000 25 2 Image --
2020 2 8 06 -13.9 163.4 1000 25 2 Image --
2020 2 8 12 -14.3 163.5 1000 25 2 Image --
2020 2 8 18 -14.6 163.5 998 25 2 Image --
2020 2 9 00 -14.8 163.6 996 30 2 Image --
2020 2 9 06 -15.3 163.8 996 30 2 Image --
2020 2 9 12 -15.8 163.9 995 35 3 Image --
2020 2 9 18 -16.2 163.4 985 50 4 Image --
2020 2 10 00 -16.8 162.9 985 50 4 Image --
2020 2 10 06 -17.2 162.9 980 55 4 Image --
2020 2 10 12 -17.7 162.9 985 55 4 Image --
2020 2 10 18 -18.5 162.7 976 65 5 Image --
2020 2 11 00 -18.8 162.7 976 65 5 Image --
2020 2 11 06 -19.5 162.8 976 65 5 Image --
2020 2 11 12 -20.5 162.9 976 65 5 Image --
2020 2 11 18 -21.3 162.7 975 70 5 Image --
2020 2 12 00 -22.3 162.7 976 65 5 Image --
2020 2 12 06 -23.4 162.3 980 60 4 Image --
2020 2 12 18 -25.6 161.7 977 55 4 Image --
2020 2 13 00 -27.3 161.0 977.3333 53.333332 0 Image --
2020 2 13 06 -28.7 160.5 977.6667 51.666668 0 Image --
2020 2 13 12 -30.0 160.0 978 50 4 Image --
2020 2 13 18 -31.4 159.4 978 45 3 Image --
2020 2 14 00 -32.9 158.7 978 45 3 Image --
2020 2 14 06 -33.8 158.6 976 45 3 Image --
2020 2 14 12 -34.6 159.1 980 40 3 Image --
2020 2 14 18 -36.0 159.6 982 40 3 Image --
2020 2 15 00 -37.3 159.8 982 40 3 Image --
2020 2 15 06 -39.4 160.5 982 0 0 Image --
2020 2 15 12 -40.4 161.2 982 0 0 Image --
2020 2 15 18 -41.9 162.9 982 0 0 Image --
2020 2 16 00 -44.2 163.9 982 0 0 Image --
2020 2 16 06 -45.2 164.3 982 0 0 Image --
2020 2 16 12 -45.7 164.6 982 0 0 Image --
2020 2 16 18 -46.2 164.2 982 0 0 Image --
2020 2 17 00 -47.1 162.8 982 0 0 Image --
2020 2 17 06 -48.5 161.0 982 0 0 Image --
< Cyclone 202005 2020 Season Cyclone 202007 >

Help